»·PEaware :: UAL1399 KLAS-KLAX

UAL1399 :: KLAS-KLAX

FLIGHT INFORMATION

Flight Status: Arrived
Operator:
United Airlines
More flights by this operator :: More flights under this callsign
Pilot: David C. (16084)
Aircraft: AIRBUS A320
(A320)
More flights by this aircraft type
Origin: KLAS McCarran Intl
United States
Destination: KLAX Los Angeles Intl
United States
More flights between these airports :: More routes between these airports
Route: BOACH8 RIKII SHTNR ANJLL4
File this flight plan on PilotEdge
Remarks:
Altitude:
(Current/Filed)
28,000ft
Speed:
(Current/Filed)
495kts
Departed: 12-May-20 12:33 PM
Arrived: 12-May-20 01:18 PM
Distance/Time
Traveled:
205nm/0:45
Distance/Time
To Go:
Arrived

Flight Plot

Page will automatically refresh every two minutes.


Map Options




Map Legend


Flown Route
Filed Route
Departure Airport
Arrival Airport
Navaid (VOR, NDB)
Fix

Horizontal Profiles

Position Reports

Time Latitude Longitude Heading Altitude Ground
Speed
12-May-20 11:51 36.085347 -115.140011 0 2066ft 0kts
12-May-20 11:52 36.085347 -115.140011 0 2066ft 0kts
12-May-20 11:53 36.085347 -115.140011 0 2066ft 0kts
12-May-20 11:54 36.085347 -115.140011 0 2066ft 0kts
12-May-20 11:55 36.085347 -115.140011 0 2066ft 0kts
12-May-20 11:56 36.085347 -115.140011 0 2066ft 0kts
12-May-20 11:57 36.085347 -115.140011 0 2066ft 0kts
12-May-20 11:58 36.085347 -115.140011 0 2066ft 0kts
12-May-20 11:59 36.085347 -115.140011 0 2066ft 0kts
12-May-20 12:00 36.085347 -115.140011 0 2066ft 0kts
12-May-20 12:01 36.085347 -115.140011 0 2066ft 0kts
12-May-20 12:02 36.085347 -115.140011 0 2066ft 0kts
12-May-20 12:03 36.085347 -115.140011 0 2066ft 0kts
12-May-20 12:04 36.085347 -115.140011 0 2066ft 0kts
12-May-20 12:05 36.085347 -115.140011 0 2066ft 0kts
12-May-20 12:06 36.085347 -115.140011 0 2066ft 0kts
12-May-20 12:07 36.085347 -115.140011 0 2066ft 0kts
12-May-20 12:08 36.085347 -115.140011 0 2066ft 0kts
12-May-20 12:09 36.085347 -115.140011 0 2066ft 0kts
12-May-20 12:10 36.085347 -115.140011 0 2066ft 0kts
12-May-20 12:11 36.085347 -115.140011 0 2066ft 0kts
12-May-20 12:12 36.085347 -115.140011 0 2066ft 0kts
12-May-20 12:13 36.085347 -115.140011 0 2066ft 0kts
12-May-20 12:14 36.085347 -115.140011 0 2066ft 0kts
12-May-20 12:15 36.085347 -115.140011 0 2066ft 0kts
12-May-20 12:16 36.085346 -115.140011 0 2066ft 0kts
12-May-20 12:17 36.085037 -115.140004 9 2066ft 2kts
12-May-20 12:18 36.084597 -115.140349 56 2068ft 1kts
12-May-20 12:19 36.084577 -115.140387 57 2068ft 0kts
12-May-20 12:20 36.084577 -115.140387 57 2068ft 0kts
12-May-20 12:21 36.084577 -115.140387 57 2068ft 0kts
12-May-20 12:22 36.084577 -115.140387 57 2068ft 0kts
12-May-20 12:23 36.084617 -115.137840 88 2060ft 16kts
12-May-20 12:24 36.083025 -115.133035 160 2050ft 14kts
12-May-20 12:25 36.079904 -115.132938 180 2056ft 8kts
12-May-20 12:26 36.079715 -115.132939 180 2056ft 0kts
12-May-20 12:27 36.079463 -115.132943 181 2057ft 8kts
12-May-20 12:28 36.078276 -115.129168 88 2048ft 20kts
12-May-20 12:29 36.077783 -115.121907 129 2038ft 17kts
12-May-20 12:30 36.077518 -115.121555 138 2038ft 0kts
12-May-20 12:31 36.077420 -115.121451 140 2038ft 4kts
12-May-20 12:32 36.076400 -115.131209 269 2056ft 122kts
12-May-20 12:33 36.077359 -115.193861 263 3827ft 206kts
12-May-20 12:34 36.059258 -115.260145 212 6181ft 238kts
12-May-20 12:35 35.993012 -115.291898 201 7030ft 258kts
12-May-20 12:36 35.920958 -115.307677 188 8283ft 273kts
12-May-20 12:37 35.843326 -115.313698 177 10931ft 303kts
12-May-20 12:38 35.758310 -115.303826 178 13900ft 312kts
12-May-20 12:39 35.669227 -115.295118 184 15879ft 341kts
12-May-20 12:40 35.568723 -115.299141 185 17337ft 372kts
12-May-20 12:41 35.474602 -115.324087 213 20201ft 345kts
12-May-20 12:42 35.390934 -115.385168 213 22070ft 355kts
12-May-20 12:43 35.304829 -115.447658 213 23747ft 365kts
12-May-20 12:44 35.216813 -115.511355 213 25293ft 373kts
12-May-20 12:45 35.127203 -115.577625 221 26761ft 378kts
12-May-20 12:46 35.055299 -115.666717 228 27943ft 387kts
12-May-20 12:47 34.977467 -115.766108 228 28011ft 424kts
12-May-20 12:49 34.893400 -115.873048 228 28021ft 448kts
12-May-20 12:50 34.806875 -115.982701 228 28028ft 448kts
12-May-20 12:51 34.720329 -116.092683 228 28034ft 453kts
12-May-20 12:52 34.633314 -116.203350 228 28042ft 453kts
12-May-20 12:53 34.546269 -116.313671 228 28038ft 452kts
12-May-20 12:54 34.459044 -116.423874 228 28025ft 452kts
12-May-20 12:55 34.388146 -116.546844 244 27934ft 437kts
12-May-20 12:56 34.339183 -116.665457 244 27209ft 391kts
12-May-20 12:57 34.291140 -116.784600 244 25343ft 375kts
12-May-20 12:58 34.246784 -116.894752 244 23446ft 363kts
12-May-20 12:59 34.205438 -117.003913 252 21496ft 352kts
12-May-20 13:00 34.175584 -117.114511 251 19625ft 340kts
12-May-20 13:01 34.146350 -117.221386 251 17398ft 340kts
12-May-20 13:02 34.115367 -117.333926 251 14294ft 355kts
12-May-20 13:03 34.087710 -117.440401 252 13257ft 308kts
12-May-20 13:03 34.065858 -117.518861 246 12281ft 285kts
12-May-20 13:05 34.029759 -117.619108 246 10562ft 273kts
12-May-20 13:06 34.005049 -117.700141 262 9763ft 248kts
12-May-20 13:06 33.998537 -117.768513 261 8748ft 243kts
12-May-20 13:07 33.990617 -117.849486 261 7611ft 243kts
12-May-20 13:08 33.982588 -117.931706 261 6048ft 259kts
12-May-20 13:10 33.973100 -118.027878 261 4605ft 225kts
12-May-20 13:10 33.968256 -118.086046 261 4487ft 194kts
12-May-20 13:11 33.961914 -118.145057 261 4064ft 171kts
12-May-20 13:12 33.956191 -118.200924 261 3032ft 170kts
12-May-20 13:13 33.950880 -118.251828 262 2254ft 156kts
12-May-20 13:14 33.945863 -118.300272 262 1474ft 139kts
12-May-20 13:15 33.941084 -118.346595 262 730ft 138kts
12-May-20 13:16 33.936427 -118.391780 262 111ft 120kts
12-May-20 13:17 33.935824 -118.405989 289 131ft 0kts
12-May-20 13:18 33.935840 -118.406044 289 131ft 3kts
12-May-20 13:19 33.937196 -118.409034 353 136ft 14kts
12-May-20 13:20 33.937847 -118.409132 353 136ft 5kts
12-May-20 13:21 33.939254 -118.403466 83 128ft 27kts
12-May-20 13:22 33.940961 -118.398236 352 125ft 10kts
12-May-20 13:23 33.941631 -118.397730 82 125ft 0kts

Navigation Log

Ident Type
Flight plan parsing failed, navigation log unavailable